createdAt,value
2023-02-24T00:02:01.220Z,99962.34
2023-02-24T00:04:30.133Z,99967.19
2023-02-24T00:06:56.941Z,99959.41
2023-02-24T00:09:26.770Z,99966.75
2023-02-24T00:12:01.106Z,99959.69
2023-02-24T00:14:34.977Z,99969.78
2023-02-24T00:17:02.428Z,99960.34
2023-02-24T00:19:33.112Z,99959.00
2023-02-24T00:22:04.223Z,99960.81
2023-02-24T00:24:31.391Z,99955.34
2023-02-24T00:27:00.990Z,99954.22
2023-02-24T00:29:29.556Z,99952.59
2023-02-24T00:32:01.671Z,99953.75
2023-02-24T00:34:34.055Z,99951.06
2023-02-24T00:37:01.917Z,99949.06
2023-02-24T00:39:35.146Z,99950.97
2023-02-24T00:42:06.035Z,99951.88
2023-02-24T00:44:38.169Z,99947.69
2023-02-24T00:47:06.997Z,99942.56
2023-02-24T00:49:35.945Z,99938.75
2023-02-24T00:52:06.579Z,99943.72
2023-02-24T00:54:36.493Z,99939.47
2023-02-24T00:57:03.396Z,99943.84
2023-02-24T00:59:29.981Z,99940.22
2023-02-24T01:01:56.482Z,99939.91
2023-02-24T01:04:23.143Z,99931.09
2023-02-24T01:06:52.115Z,99932.59
2023-02-24T01:09:20.904Z,99922.75
2023-02-24T01:12:07.832Z,99918.09
2023-02-24T01:14:35.529Z,99920.56
2023-02-24T01:17:03.704Z,99917.63
2023-02-24T01:19:31.693Z,99908.38
2023-02-24T01:22:01.088Z,99909.66
2023-02-24T01:24:28.980Z,99912.09
2023-02-24T01:26:55.396Z,99906.75
2023-02-24T01:29:25.638Z,99906.84
2023-02-24T01:31:52.849Z,99899.50
2023-02-24T01:34:19.568Z,99890.50
2023-02-24T01:36:46.790Z,99893.41
2023-02-24T01:39:13.634Z,99895.38
2023-02-24T01:41:44.199Z,99888.94
2023-02-24T01:44:14.351Z,99887.38
2023-02-24T01:46:42.860Z,99889.16
2023-02-24T01:49:12.776Z,99883.94
2023-02-24T01:52:05.540Z,99876.88
2023-02-24T01:54:46.315Z,99881.19
2023-02-24T01:57:17.202Z,99871.41
2023-02-24T01:59:49.522Z,99869.59
2023-02-24T02:02:16.891Z,99865.31
2023-02-24T02:04:46.379Z,99861.97
2023-02-24T02:07:16.367Z,99860.19
2023-02-24T02:09:44.028Z,99867.28
2023-02-24T02:12:11.330Z,99863.81
2023-02-24T02:14:43.288Z,99858.50
2023-02-24T02:17:35.641Z,99856.88
2023-02-24T02:20:22.192Z,99844.78
2023-02-24T02:23:10.103Z,99841.31
2023-02-24T02:25:55.520Z,99846.38
2023-02-24T02:29:00.499Z,99834.09
2023-02-24T02:31:46.421Z,99840.25
2023-02-24T02:34:20.123Z,99835.72
2023-02-24T02:36:54.772Z,99841.06
2023-02-24T02:39:47.993Z,99838.63
2023-02-24T02:42:36.636Z,99840.97
2023-02-24T02:45:17.710Z,99838.38
2023-02-24T02:47:53.982Z,99832.84
2023-02-24T02:50:36.484Z,99835.09
2023-02-24T02:53:12.161Z,99826.22
2023-02-24T02:55:45.614Z,99828.31
2023-02-24T02:58:17.638Z,99821.38
2023-02-24T03:01:01.538Z,99822.19
2023-02-24T03:03:42.732Z,99812.28
2023-02-24T03:06:14.617Z,99811.81
2023-02-24T03:08:48.601Z,99805.44
2023-02-24T03:11:18.722Z,99801.59
2023-02-24T03:13:51.244Z,99799.28
2023-02-24T03:16:23.023Z,99795.88
2023-02-24T03:18:57.872Z,99794.47
2023-02-24T03:21:29.212Z,99790.56
2023-02-24T03:23:55.951Z,99793.84
2023-02-24T03:26:30.251Z,99784.56
2023-02-24T03:29:24.036Z,99788.22
2023-02-24T03:32:05.256Z,99783.09
2023-02-24T03:34:50.449Z,99780.81
2023-02-24T03:37:17.213Z,99787.94
2023-02-24T03:39:43.998Z,99776.69
2023-02-24T03:42:18.987Z,99779.44
2023-02-24T03:44:45.534Z,99775.56
2023-02-24T03:47:15.834Z,99776.38
2023-02-24T03:49:43.721Z,99767.25
2023-02-24T03:52:21.482Z,99768.25
2023-02-24T03:55:03.060Z,99766.78
2023-02-24T03:58:04.694Z,99762.31
2023-02-24T04:00:44.633Z,99761.69
2023-02-24T04:03:25.513Z,99756.03
2023-02-24T04:06:01.596Z,99758.13
2023-02-24T04:08:31.796Z,99762.63
2023-02-24T04:10:58.076Z,99752.41
2023-02-24T04:13:50.765Z,99761.78
2023-02-24T04:16:28.936Z,99756.69
2023-02-24T04:19:03.842Z,99747.06
2023-02-24T04:21:32.174Z,99758.72
2023-02-24T04:24:02.541Z,99746.88
2023-02-24T04:26:29.919Z,99749.00
2023-02-24T04:28:57.249Z,99742.22
2023-02-24T04:31:26.652Z,99744.53
2023-02-24T04:33:53.337Z,99733.81
2023-02-24T04:36:21.482Z,99728.41
2023-02-24T04:38:48.294Z,99739.28
2023-02-24T04:41:21.025Z,99735.03
2023-02-24T04:43:50.733Z,99731.53
2023-02-24T04:46:19.047Z,99718.34
2023-02-24T04:48:45.549Z,99717.69
2023-02-24T04:51:13.050Z,99702.75
2023-02-24T04:53:39.580Z,99701.03
2023-02-24T04:56:09.427Z,99700.34
2023-02-24T04:58:38.342Z,99699.63
2023-02-24T05:01:11.315Z,99697.91
2023-02-24T05:03:42.095Z,99684.38
2023-02-24T05:06:17.661Z,99686.84
2023-02-24T05:08:44.977Z,99692.28
2023-02-24T05:11:16.024Z,99684.09
2023-02-24T05:13:45.690Z,99687.25
2023-02-24T05:16:13.854Z,99695.19
2023-02-24T05:18:40.546Z,99681.06
2023-02-24T05:21:28.556Z,99677.91
2023-02-24T05:23:58.138Z,99675.22
2023-02-24T05:26:26.009Z,99668.78
2023-02-24T05:28:54.550Z,99664.91
2023-02-24T05:31:26.449Z,99673.69
2023-02-24T05:33:55.579Z,99657.19
2023-02-24T05:36:22.598Z,99661.06
2023-02-24T05:39:06.547Z,99660.03
2023-02-24T05:41:35.763Z,99659.22
2023-02-24T05:44:08.360Z,99659.34
2023-02-24T05:46:38.612Z,99662.97
2023-02-24T05:49:10.447Z,99650.22
2023-02-24T05:51:39.171Z,99656.56
2023-02-24T05:54:07.992Z,99656.53
2023-02-24T05:56:36.488Z,99654.69
2023-02-24T05:59:06.459Z,99656.53
2023-02-24T06:01:36.200Z,99660.91
2023-02-24T06:04:07.013Z,99657.38
2023-02-24T06:06:37.255Z,99648.72
2023-02-24T06:09:12.702Z,99646.53
2023-02-24T06:11:40.807Z,99651.13
2023-02-24T06:14:08.362Z,99646.63
2023-02-24T06:16:40.201Z,99639.34
2023-02-24T06:19:09.048Z,99637.88
2023-02-24T06:21:41.120Z,99639.28
2023-02-24T06:24:14.509Z,99639.44
2023-02-24T06:26:45.292Z,99639.44
2023-02-24T06:29:15.960Z,99646.41
2023-02-24T06:31:44.142Z,99647.19
2023-02-24T06:34:13.061Z,99636.78
2023-02-24T06:36:43.662Z,99638.09
2023-02-24T06:39:13.513Z,99628.75
2023-02-24T06:41:40.534Z,99630.69
2023-02-24T06:44:06.968Z,99626.94
2023-02-24T06:46:33.357Z,99641.19
2023-02-24T06:48:59.811Z,99634.09
2023-02-24T06:51:30.120Z,99638.56
2023-02-24T06:53:59.318Z,99643.84
2023-02-24T06:56:27.221Z,99636.84
2023-02-24T06:58:56.858Z,99630.63
2023-02-24T07:01:26.072Z,99635.81
2023-02-24T07:04:17.656Z,99627.03
2023-02-24T07:06:52.220Z,99641.03
2023-02-24T07:09:25.656Z,99636.50
2023-02-24T07:11:55.844Z,99648.72
2023-02-24T07:14:24.814Z,99638.69
2023-02-24T07:16:54.393Z,99645.84
2023-02-24T07:19:23.770Z,99638.25
2023-02-24T07:21:52.661Z,99638.13
2023-02-24T07:24:25.051Z,99642.09
2023-02-24T07:27:00.613Z,99638.38
2023-02-24T07:29:30.338Z,99638.56
2023-02-24T07:32:06.927Z,99648.09
2023-02-24T07:34:33.719Z,99643.94
2023-02-24T07:37:06.517Z,99637.03
2023-02-24T07:39:33.115Z,99638.56
2023-02-24T07:41:59.531Z,99634.91
2023-02-24T07:44:26.114Z,99627.75
2023-02-24T07:46:52.560Z,99620.75
2023-02-24T07:49:22.539Z,99620.59
2023-02-24T07:51:52.737Z,99617.88
2023-02-24T07:54:21.486Z,99607.34
2023-02-24T07:56:56.399Z,99608.03
2023-02-24T07:59:27.415Z,99606.09
2023-02-24T08:01:55.761Z,99599.88
2023-02-24T08:04:28.782Z,99602.75
2023-02-24T08:06:56.359Z,99606.94
2023-02-24T08:09:46.487Z,99598.75
2023-02-24T08:12:21.110Z,99585.50
2023-02-24T08:14:52.835Z,99592.94
2023-02-24T08:17:22.140Z,99593.03
2023-02-24T08:19:50.329Z,99580.19
2023-02-24T08:22:20.268Z,99583.38
2023-02-24T08:24:55.639Z,99582.56
2023-02-24T08:27:24.505Z,99571.78
2023-02-24T08:29:59.713Z,99569.66
2023-02-24T08:32:43.577Z,99574.31
2023-02-24T08:35:18.332Z,99580.19
2023-02-24T08:37:47.161Z,99575.56
2023-02-24T08:40:32.300Z,99589.69
2023-02-24T08:43:22.612Z,99588.25
2023-02-24T08:45:52.189Z,99577.38
2023-02-24T08:48:32.372Z,99573.81
2023-02-24T08:51:01.881Z,99577.34
2023-02-24T08:53:31.483Z,99571.78
2023-02-24T08:56:09.657Z,99564.25
2023-02-24T08:58:48.368Z,99558.69
2023-02-24T09:01:24.162Z,99560.38
2023-02-24T09:03:56.873Z,99558.75
2023-02-24T09:06:48.435Z,99553.03
2023-02-24T09:09:18.091Z,99561.19
2023-02-24T09:11:46.666Z,99551.84
2023-02-24T09:14:26.172Z,99546.13
2023-02-24T09:17:06.411Z,99545.72
2023-02-24T09:19:51.485Z,99537.97
2023-02-24T09:22:32.781Z,99539.56
2023-02-24T09:25:21.284Z,99542.59
2023-02-24T09:28:07.854Z,99540.22
2023-02-24T09:30:56.095Z,99527.75
2023-02-24T09:33:38.998Z,99524.97
2023-02-24T09:36:10.210Z,99515.84
2023-02-24T09:39:03.161Z,99515.84
2023-02-24T09:41:54.974Z,99508.53
2023-02-24T09:44:34.692Z,99508.66
2023-02-24T09:47:17.184Z,99510.13
2023-02-24T09:49:56.023Z,99506.19
2023-02-24T09:52:39.556Z,99508.09
2023-02-24T09:55:30.984Z,99496.41
2023-02-24T09:58:43.797Z,99491.41
2023-02-24T10:01:35.917Z,99483.00
2023-02-24T10:04:27.391Z,99481.25
2023-02-24T10:06:59.035Z,99473.56
2023-02-24T10:09:43.469Z,99474.28
2023-02-24T10:12:31.835Z,99471.78
2023-02-24T10:15:46.999Z,99474.84
2023-02-24T10:18:48.318Z,99469.53
2023-02-24T10:22:00.393Z,99469.25
2023-02-24T10:24:47.288Z,99465.59
2023-02-24T10:27:31.712Z,99460.72
2023-02-24T10:30:27.873Z,99453.47
2023-02-24T10:33:00.039Z,99446.41
2023-02-24T10:35:33.657Z,99451.50
2023-02-24T10:38:10.915Z,99446.31
2023-02-24T10:40:57.618Z,99430.06
2023-02-24T10:43:33.664Z,99433.41
2023-02-24T10:46:18.607Z,99423.81
2023-02-24T10:49:00.346Z,99414.59
2023-02-24T10:51:33.202Z,99421.28
2023-02-24T10:54:24.238Z,99412.72
2023-02-24T10:57:10.054Z,99413.22
2023-02-24T11:00:20.322Z,99405.41
2023-02-24T11:03:09.873Z,99399.69
2023-02-24T11:06:04.991Z,99389.28
2023-02-24T11:08:54.200Z,99380.00
2023-02-24T11:11:29.770Z,99378.41
2023-02-24T11:14:20.018Z,99373.81
2023-02-24T11:17:10.325Z,99369.00
2023-02-24T11:19:45.299Z,99361.09
2023-02-24T11:22:25.136Z,99358.97
2023-02-24T11:24:52.132Z,99365.97
2023-02-24T11:27:23.276Z,99363.16
2023-02-24T11:30:06.205Z,99347.50
2023-02-24T11:32:51.256Z,99345.63
2023-02-24T11:35:31.291Z,99340.69
2023-02-24T11:38:27.992Z,99331.91
2023-02-24T11:41:05.293Z,99328.78
2023-02-24T11:43:34.958Z,99327.69
2023-02-24T11:46:11.383Z,99315.56
2023-02-24T11:48:51.834Z,99315.34
2023-02-24T11:51:23.490Z,99299.78
2023-02-24T11:54:11.178Z,99295.03
2023-02-24T11:56:54.739Z,99291.50
2023-02-24T11:59:36.276Z,99274.19
2023-02-24T12:02:27.034Z,99278.75
2023-02-24T12:05:19.509Z,99266.31
2023-02-24T12:07:50.848Z,99266.50
2023-02-24T12:10:22.919Z,99263.41
2023-02-24T12:13:01.949Z,99251.47
2023-02-24T12:15:55.239Z,99236.69
2023-02-24T12:18:42.386Z,99235.84
2023-02-24T12:21:30.524Z,99232.00
2023-02-24T12:23:58.550Z,99239.31
2023-02-24T12:26:30.795Z,99229.75
2023-02-24T12:29:00.284Z,99219.69
2023-02-24T12:31:53.270Z,99213.66
2023-02-24T12:34:50.677Z,99209.09
2023-02-24T12:37:32.469Z,99204.16
2023-02-24T12:40:23.388Z,99196.84
2023-02-24T12:42:54.424Z,99188.06
2023-02-24T12:45:39.306Z,99193.84
2023-02-24T12:48:28.670Z,99193.50
2023-02-24T12:51:00.573Z,99181.13
2023-02-24T12:54:05.812Z,99179.31
2023-02-24T12:56:53.482Z,99171.41
2023-02-24T12:59:25.434Z,99171.75
2023-02-24T13:02:01.287Z,99168.66
2023-02-24T13:04:34.630Z,99163.75
2023-02-24T13:07:32.302Z,99165.75
2023-02-24T13:10:26.824Z,99157.69
2023-02-24T13:13:14.251Z,99150.16
2023-02-24T13:15:51.200Z,99155.50
2023-02-24T13:18:35.831Z,99158.63
2023-02-24T13:21:09.046Z,99162.25
2023-02-24T13:23:37.175Z,99154.22
2023-02-24T13:26:03.954Z,99151.75
2023-02-24T13:28:36.344Z,99154.16
2023-02-24T13:31:08.502Z,99153.41
2023-02-24T13:33:38.603Z,99146.09
2023-02-24T13:36:21.463Z,99142.56
2023-02-24T13:38:51.074Z,99143.97
2023-02-24T13:41:40.708Z,99142.56
2023-02-24T13:44:19.850Z,99138.63
2023-02-24T13:47:06.688Z,99122.09
2023-02-24T13:49:55.012Z,99118.16
2023-02-24T13:52:51.538Z,99120.97
2023-02-24T13:55:45.324Z,99125.47
2023-02-24T13:58:26.141Z,99119.03
2023-02-24T14:01:15.236Z,99116.66
2023-02-24T14:03:46.797Z,99114.09
2023-02-24T14:06:26.667Z,99110.38
2023-02-24T14:08:56.404Z,99114.19
2023-02-24T14:11:26.884Z,99118.94
2023-02-24T14:13:55.746Z,99104.56
2023-02-24T14:16:28.548Z,99106.28
2023-02-24T14:19:03.720Z,99103.78
2023-02-24T14:21:33.702Z,99097.00
2023-02-24T14:24:19.134Z,99092.09
2023-02-24T14:26:57.232Z,99084.09
2023-02-24T14:29:27.048Z,99079.59
2023-02-24T14:31:56.032Z,99072.66
2023-02-24T14:34:25.733Z,99075.19
2023-02-24T14:36:55.123Z,99076.09
2023-02-24T14:39:22.977Z,99064.72
2023-02-24T14:41:51.067Z,99065.16
2023-02-24T14:44:26.953Z,99067.03
2023-02-24T14:46:58.117Z,99066.09
2023-02-24T14:49:30.148Z,99066.09
2023-02-24T14:52:08.045Z,99066.13
2023-02-24T14:55:04.478Z,99057.25
2023-02-24T14:57:45.097Z,99046.66
2023-02-24T15:00:23.811Z,99049.34
2023-02-24T15:03:03.134Z,99040.91
2023-02-24T15:05:29.971Z,99052.44
2023-02-24T15:07:58.394Z,99045.47
2023-02-24T15:10:28.713Z,99052.53
2023-02-24T15:13:36.563Z,99048.06
2023-02-24T15:16:13.398Z,99047.56
2023-02-24T15:18:40.777Z,99041.09
2023-02-24T15:21:18.242Z,99040.47
2023-02-24T15:23:45.804Z,99034.72
2023-02-24T15:26:27.352Z,99035.84
2023-02-24T15:28:59.425Z,99031.84
2023-02-24T15:31:28.098Z,99031.16
2023-02-24T15:34:03.217Z,99032.44
2023-02-24T15:36:35.422Z,99026.09
2023-02-24T15:39:08.949Z,99026.88
2023-02-24T15:41:44.397Z,99030.94
2023-02-24T15:44:31.840Z,99025.47
2023-02-24T15:46:59.981Z,99021.81
2023-02-24T15:49:26.394Z,99021.00
2023-02-24T15:51:55.412Z,99024.31
2023-02-24T15:54:35.806Z,99017.56
2023-02-24T15:57:05.261Z,99016.00
2023-02-24T15:59:31.896Z,99011.94
2023-02-24T16:01:58.326Z,99011.03
2023-02-24T16:04:26.660Z,99015.38
2023-02-24T16:06:56.405Z,99006.31
2023-02-24T16:09:36.590Z,99002.47
2023-02-24T16:12:13.316Z,98998.00
2023-02-24T16:14:40.825Z,98997.00
2023-02-24T16:17:23.099Z,98998.78
2023-02-24T16:19:49.587Z,99000.25
2023-02-24T16:22:15.964Z,99001.03
2023-02-24T16:24:43.842Z,98998.44
2023-02-24T16:27:16.033Z,98996.13
2023-02-24T16:29:42.706Z,98999.03
2023-02-24T16:32:11.269Z,98996.75
2023-02-24T16:34:37.899Z,98991.25
2023-02-24T16:37:04.347Z,98994.59
2023-02-24T16:39:30.748Z,99000.88
2023-02-24T16:41:57.649Z,98997.66
2023-02-24T16:44:24.057Z,98999.03
2023-02-24T16:46:51.578Z,98993.94
2023-02-24T16:49:20.168Z,98991.94
2023-02-24T16:51:46.651Z,99000.78
2023-02-24T16:54:13.231Z,99003.59
2023-02-24T16:56:39.654Z,99010.75
2023-02-24T16:59:06.102Z,99005.84
2023-02-24T17:01:32.663Z,99009.63
2023-02-24T17:03:59.289Z,99010.00
2023-02-24T17:06:26.116Z,99015.25
2023-02-24T17:08:52.792Z,99024.75
2023-02-24T17:11:20.949Z,99036.19
2023-02-24T17:13:47.369Z,99030.72
2023-02-24T17:16:13.895Z,99035.53
2023-02-24T17:18:40.285Z,99035.44
2023-02-24T17:21:06.757Z,99042.75
2023-02-24T17:23:33.244Z,99049.84
2023-02-24T17:26:01.668Z,99052.56
2023-02-24T17:28:28.150Z,99048.94
2023-02-24T17:30:54.758Z,99052.44
2023-02-24T17:33:21.241Z,99049.19
2023-02-24T17:35:48.305Z,99053.63
2023-02-24T17:38:16.103Z,99065.97
2023-02-24T17:40:43.870Z,99057.38
2023-02-24T17:43:10.836Z,99058.09
2023-02-24T17:45:42.659Z,99056.72
2023-02-24T17:48:09.953Z,99070.97
2023-02-24T17:50:36.350Z,99075.41
2023-02-24T17:53:02.808Z,99079.00
2023-02-24T17:55:29.191Z,99078.94
2023-02-24T17:57:57.175Z,99077.13
2023-02-24T18:00:23.876Z,99076.53
2023-02-24T18:02:50.351Z,99075.44
2023-02-24T18:05:16.869Z,99081.28
2023-02-24T18:07:43.352Z,99080.09
2023-02-24T18:10:10.387Z,99077.97
2023-02-24T18:12:37.429Z,99088.19
2023-02-24T18:15:09.393Z,99081.78
2023-02-24T18:17:37.791Z,99068.59
2023-02-24T18:20:06.248Z,99076.13
2023-02-24T18:22:32.714Z,99070.28
2023-02-24T18:25:00.774Z,99073.03
2023-02-24T18:27:27.591Z,99073.38
2023-02-24T18:29:54.393Z,99071.88
2023-02-24T18:32:21.146Z,99071.19
2023-02-24T18:34:47.692Z,99058.34
2023-02-24T18:37:14.028Z,99068.34
2023-02-24T18:39:40.425Z,99072.25
2023-02-24T18:42:06.975Z,99066.69
2023-02-24T18:44:33.399Z,99074.84
2023-02-24T18:46:59.779Z,99079.69
2023-02-24T18:49:26.267Z,99081.78
2023-02-24T18:51:52.705Z,99077.41
2023-02-24T18:54:20.165Z,99091.47
2023-02-24T18:56:46.552Z,99092.91
2023-02-24T18:59:13.005Z,99085.53
2023-02-24T19:01:40.010Z,99087.81
2023-02-24T19:04:08.217Z,99084.88
2023-02-24T19:06:35.822Z,99086.84
2023-02-24T19:09:05.846Z,99087.06
2023-02-24T19:11:33.344Z,99084.38
2023-02-24T19:14:00.775Z,99073.31
2023-02-24T19:16:27.414Z,99075.03
2023-02-24T19:18:56.437Z,99070.09
2023-02-24T19:21:24.561Z,99068.72
2023-02-24T19:23:51.242Z,99065.03
2023-02-24T19:26:21.168Z,99069.53
2023-02-24T19:28:48.007Z,99062.91
2023-02-24T19:31:18.126Z,99070.34
2023-02-24T19:33:45.071Z,99068.59
2023-02-24T19:36:12.120Z,99068.84
2023-02-24T19:38:41.550Z,99068.16
2023-02-24T19:41:08.252Z,99066.72
2023-02-24T19:43:34.959Z,99077.94
2023-02-24T19:46:09.598Z,99072.78
2023-02-24T19:48:36.311Z,99077.47
2023-02-24T19:51:17.981Z,99071.78
2023-02-24T19:53:45.075Z,99078.72
2023-02-24T19:56:11.659Z,99078.72
2023-02-24T19:58:38.519Z,99085.00
2023-02-24T20:01:06.090Z,99081.97
2023-02-24T20:03:32.601Z,99080.59
2023-02-24T20:05:59.041Z,99088.06
2023-02-24T20:08:25.418Z,99081.69
2023-02-24T20:10:59.892Z,99095.84
2023-02-24T20:13:26.352Z,99093.13
2023-02-24T20:15:52.718Z,99100.41
2023-02-24T20:18:19.111Z,99100.16
2023-02-24T20:20:46.393Z,99101.00
2023-02-24T20:23:12.801Z,99097.19
2023-02-24T20:25:39.207Z,99085.22
2023-02-24T20:28:05.607Z,99080.25
2023-02-24T20:30:32.044Z,99082.94
2023-02-24T20:32:59.567Z,99086.00
2023-02-24T20:35:26.378Z,99079.88
2023-02-24T20:37:52.783Z,99085.66
2023-02-24T20:40:19.262Z,99083.69
2023-02-24T20:42:45.679Z,99085.59
2023-02-24T20:45:12.199Z,99081.22
2023-02-24T20:47:38.562Z,99090.25
2023-02-24T20:50:05.668Z,99088.13
2023-02-24T20:52:34.229Z,99089.50
2023-02-24T20:55:00.660Z,99085.75
2023-02-24T20:57:30.334Z,99082.34
2023-02-24T21:00:03.626Z,99086.94
2023-02-24T21:02:30.170Z,99080.25
2023-02-24T21:04:56.739Z,99090.94
2023-02-24T21:07:23.303Z,99092.88
2023-02-24T21:09:49.853Z,99081.03
2023-02-24T21:12:16.413Z,99089.03
2023-02-24T21:14:43.515Z,99077.66
2023-02-24T21:17:11.805Z,99068.28
2023-02-24T21:19:38.778Z,99073.47
2023-02-24T21:22:06.371Z,99066.38
2023-02-24T21:24:33.146Z,99064.81
2023-02-24T21:26:59.531Z,99062.50
2023-02-24T21:29:25.946Z,99066.34
2023-02-24T21:31:52.492Z,99073.06
2023-02-24T21:34:19.212Z,99073.25
2023-02-24T21:36:45.894Z,99078.22
2023-02-24T21:39:14.877Z,99070.19
2023-02-24T21:41:42.007Z,99067.09
2023-02-24T21:44:11.994Z,99083.31
2023-02-24T21:46:38.497Z,99074.59
2023-02-24T21:49:05.023Z,99083.56
2023-02-24T21:51:31.432Z,99089.84
2023-02-24T21:53:57.912Z,99096.72
2023-02-24T21:56:27.032Z,99092.63
2023-02-24T21:59:04.211Z,99102.56
2023-02-24T22:01:36.786Z,99105.22
2023-02-24T22:04:06.949Z,99114.69
2023-02-24T22:06:35.055Z,99115.00
2023-02-24T22:09:03.270Z,99104.25
2023-02-24T22:11:35.200Z,99108.91
2023-02-24T22:14:02.160Z,99107.81
2023-02-24T22:16:29.339Z,99121.13
2023-02-24T22:18:56.161Z,99124.34
2023-02-24T22:21:25.854Z,99126.88
2023-02-24T22:23:54.457Z,99118.44
2023-02-24T22:26:25.452Z,99127.00
2023-02-24T22:28:53.954Z,99127.59
2023-02-24T22:31:23.743Z,99125.44
2023-02-24T22:33:50.275Z,99146.97
2023-02-24T22:36:20.344Z,99140.94
2023-02-24T22:38:47.752Z,99138.50
2023-02-24T22:41:17.299Z,99139.53
2023-02-24T22:43:44.267Z,99137.88
2023-02-24T22:46:13.714Z,99143.59
2023-02-24T22:48:40.193Z,99144.16
2023-02-24T22:51:09.212Z,99143.25
2023-02-24T22:53:40.065Z,99148.06
2023-02-24T22:56:07.374Z,99150.84
2023-02-24T22:58:34.123Z,99152.59
2023-02-24T23:01:00.619Z,99154.72
2023-02-24T23:03:32.413Z,99156.25
2023-02-24T23:05:59.228Z,99157.59
2023-02-24T23:08:27.272Z,99155.88
2023-02-24T23:10:54.112Z,99163.75
2023-02-24T23:13:20.893Z,99165.22
2023-02-24T23:15:48.389Z,99161.59
2023-02-24T23:18:15.687Z,99165.91
2023-02-24T23:20:42.323Z,99162.88
2023-02-24T23:23:10.509Z,99165.47
2023-02-24T23:25:38.770Z,99173.09
2023-02-24T23:28:06.171Z,99174.72
2023-02-24T23:30:32.642Z,99178.00
2023-02-24T23:32:59.295Z,99177.91
2023-02-24T23:35:25.648Z,99182.84
2023-02-24T23:37:52.051Z,99190.56
2023-02-24T23:40:25.786Z,99189.84
2023-02-24T23:42:53.162Z,99196.66
2023-02-24T23:45:20.788Z,99189.09
2023-02-24T23:47:47.173Z,99199.91
2023-02-24T23:50:13.590Z,99189.09
2023-02-24T23:52:39.986Z,99193.28
2023-02-24T23:55:06.790Z,99188.44
2023-02-24T23:57:33.140Z,99200.06
2023-02-24T23:59:59.570Z,99202.16
